Time;durP1;ratioP1;P1;durP2;ratioP2;P2;SDS_P1;SDS_P2;PMS_P1;PMS_P2;Temp;Humidity;BMP_temperature;BMP_pressure;BME280_temperature;BME280_humidity;BME280_pressure;Samples;Min_cycle;Max_cycle;Signal;HPM_P1;HPM_P2
2021/06/13 00:00:37;;;;;;;11.05;3.00;;;;;;;18.10;53.56;101156.13;5065384;28;20316;-59
2021/06/13 00:03:04;;;;;;;5.35;2.45;;;;;;;18.05;53.35;101153.75;5062207;28;20065;-60
2021/06/13 00:05:30;;;;;;;4.97;3.08;;;;;;;17.98;53.86;101163.13;5055589;28;20044;-60
2021/06/13 00:07:57;;;;;;;7.85;2.90;;;;;;;17.95;53.98;101163.34;5063384;28;20045;-60
2021/06/13 00:10:23;;;;;;;4.45;2.90;;;;;;;17.93;54.31;101175.16;5064906;28;20040;-61
2021/06/13 00:12:50;;;;;;;4.57;2.95;;;;;;;17.86;54.45;101172.84;5063449;28;20056;-60
2021/06/13 00:15:22;;;;;;;6.18;2.90;;;;;;;17.77;54.75;101167.25;5063870;28;20075;-57
2021/06/13 00:17:50;;;;;;;6.53;3.20;;;;;;;17.70;55.30;101169.44;5063832;28;20052;-61
2021/06/13 00:20:21;;;;;;;5.40;3.08;;;;;;;17.64;55.31;101179.69;5064855;28;20147;-61
2021/06/13 00:22:49;;;;;;;7.07;2.88;;;;;;;17.62;55.20;101177.09;5064061;28;20488;-59
2021/06/13 00:25:16;;;;;;;8.57;3.60;;;;;;;17.56;55.55;101176.59;5060748;28;20044;-60
2021/06/13 00:27:42;;;;;;;4.03;2.70;;;;;;;17.48;56.31;101179.75;5066884;28;20079;-57
2021/06/13 00:30:11;;;;;;;8.68;3.00;;;;;;;17.46;56.29;101189.72;5068697;28;20041;-61
2021/06/13 00:32:39;;;;;;;5.68;2.90;;;;;;;17.44;56.44;101189.81;5067750;28;20143;-61
2021/06/13 00:35:06;;;;;;;5.85;2.80;;;;;;;17.40;56.45;101187.44;5067004;28;20072;-58
2021/06/13 00:37:33;;;;;;;5.75;2.45;;;;;;;17.35;56.71;101201.09;5059511;28;20776;-62
2021/06/13 00:40:00;;;;;;;4.22;2.65;;;;;;;17.26;57.07;101193.66;5065493;28;20131;-57
2021/06/13 00:42:26;;;;;;;5.75;3.10;;;;;;;17.22;57.42;101199.28;5061688;28;20152;-61
2021/06/13 00:44:53;;;;;;;8.85;3.28;;;;;;;17.16;57.76;101201.38;5066407;28;20048;-61
2021/06/13 00:47:20;;;;;;;6.25;2.95;;;;;;;17.19;57.88;101205.66;5064728;28;20040;-56
2021/06/13 00:49:46;;;;;;;7.85;3.00;;;;;;;17.19;57.84;101211.88;5072103;28;20052;-60
2021/06/13 00:52:13;;;;;;;6.05;2.97;;;;;;;17.18;57.60;101198.59;5062621;28;119884;-61
2021/06/13 00:54:39;;;;;;;4.72;2.83;;;;;;;17.15;58.13;101214.88;5069794;28;20275;-57
2021/06/13 00:57:06;;;;;;;6.28;3.20;;;;;;;17.13;58.28;101211.41;5064014;28;20045;-61
2021/06/13 00:59:33;;;;;;;5.25;3.10;;;;;;;17.10;58.34;101217.81;5067103;28;20544;-61
2021/06/13 01:01:59;;;;;;;8.25;2.90;;;;;;;17.06;58.62;101218.94;5066483;28;20052;-61
2021/06/13 01:04:26;;;;;;;5.57;3.70;;;;;;;16.97;58.85;101211.50;5068858;28;20610;-61
2021/06/13 01:07:08;;;;;;;6.05;2.85;;;;;;;17.02;58.90;101220.06;5059755;28;20055;-59
2021/06/13 01:09:49;;;;;;;5.40;3.17;;;;;;;16.97;59.15;101221.34;5045595;28;20055;-58
2021/06/13 01:12:24;;;;;;;9.13;3.10;;;;;;;16.92;59.27;101221.59;5056645;28;20068;-57
2021/06/13 01:15:20;;;;;;;7.55;3.22;;;;;;;16.91;59.47;101221.69;5074818;28;20056;-61
2021/06/13 01:18:04;;;;;;;5.22;2.80;;;;;;;16.87;59.33;101221.00;5058516;28;20057;-61
2021/06/13 01:20:37;;;;;;;5.22;2.72;;;;;;;16.78;59.61;101227.78;5059507;28;20313;-60
2021/06/13 01:23:15;;;;;;;4.90;3.08;;;;;;;16.66;59.99;101223.16;5059213;28;20059;-61
2021/06/13 01:25:48;;;;;;;7.88;3.17;;;;;;;16.61;60.48;101227.88;5053403;28;20056;-59
2021/06/13 01:29:02;;;;;;;6.40;3.10;;;;;;;16.56;60.61;101223.75;5068050;28;20807;-60
2021/06/13 01:31:47;;;;;;;6.50;3.03;;;;;;;16.48;60.46;101225.06;5043923;28;20056;-59
2021/06/13 01:34:29;;;;;;;4.38;3.08;;;;;;;16.44;61.01;101220.84;5052621;28;20052;-58
2021/06/13 01:36:59;;;;;;;6.65;3.10;;;;;;;16.42;61.35;101225.41;5062446;28;20052;-58
2021/06/13 01:39:29;;;;;;;5.25;2.63;;;;;;;16.41;61.23;101218.34;5062274;28;20060;-61
2021/06/13 01:41:58;;;;;;;5.97;3.10;;;;;;;16.39;61.64;101220.25;5055956;28;20052;-59
2021/06/13 01:44:26;;;;;;;5.65;2.80;;;;;;;16.37;61.81;101219.47;5069714;28;20048;-60
2021/06/13 01:46:54;;;;;;;6.25;2.90;;;;;;;16.36;61.47;101219.59;5051576;28;20053;-61
2021/06/13 01:49:22;;;;;;;6.63;3.17;;;;;;;16.38;61.53;101226.53;5061619;28;20056;-60
2021/06/13 01:51:49;;;;;;;6.13;2.63;;;;;;;16.37;61.33;101224.81;5063961;28;20545;-59
2021/06/13 01:54:18;;;;;;;7.40;3.03;;;;;;;16.34;61.47;101230.34;5062023;28;20048;-61
2021/06/13 01:56:47;;;;;;;8.57;3.42;;;;;;;16.33;60.85;101228.63;5075556;28;20125;-61
2021/06/13 01:59:17;;;;;;;6.35;2.78;;;;;;;16.30;61.30;101228.81;5054303;28;20064;-61
2021/06/13 02:01:45;;;;;;;5.63;3.40;;;;;;;16.28;61.32;101232.50;5072170;28;20052;-60
2021/06/13 02:04:13;;;;;;;5.32;2.83;;;;;;;16.26;61.09;101232.59;5072832;28;20040;-60
2021/06/13 02:06:46;;;;;;;5.10;3.08;;;;;;;16.21;61.58;101234.69;5059634;28;20048;-61
2021/06/13 02:09:14;;;;;;;6.93;2.83;;;;;;;16.21;61.37;101237.38;5068024;28;20047;-60
2021/06/13 02:11:43;;;;;;;7.93;3.42;;;;;;;16.15;61.71;101240.38;5056772;28;20148;-61
2021/06/13 02:14:11;;;;;;;6.65;2.70;;;;;;;16.09;61.58;101232.69;5059590;28;20041;-60
2021/06/13 02:16:43;;;;;;;5.90;3.10;;;;;;;16.07;61.72;101242.59;5065403;28;20056;-61
2021/06/13 02:19:13;;;;;;;4.97;2.88;;;;;;;16.01;61.99;101248.31;5064839;28;20044;-62
2021/06/13 02:21:44;;;;;;;5.23;3.10;;;;;;;15.98;62.22;101240.44;5058900;28;20045;-61
2021/06/13 02:24:12;;;;;;;8.05;3.20;;;;;;;15.97;61.90;101244.06;5059928;28;20517;-59
2021/06/13 02:26:40;;;;;;;8.27;3.58;;;;;;;15.93;61.83;101247.84;5054216;28;20074;-61
2021/06/13 02:29:08;;;;;;;7.38;3.08;;;;;;;15.90;61.30;101253.38;5062553;28;20055;-60
2021/06/13 02:31:40;;;;;;;4.85;3.00;;;;;;;15.79;61.68;101246.81;5049895;28;20496;-57
2021/06/13 02:34:08;;;;;;;6.43;2.83;;;;;;;15.77;61.29;101255.84;5049509;28;20521;-61
2021/06/13 02:36:37;;;;;;;5.88;3.03;;;;;;;15.71;61.47;101251.72;5051530;28;20519;-62
2021/06/13 02:39:06;;;;;;;5.78;2.85;;;;;;;15.69;61.52;101252.75;5048749;28;20059;-60
2021/06/13 02:41:34;;;;;;;6.35;3.17;;;;;;;15.65;60.90;101248.50;5052003;28;20060;-59
2021/06/13 02:44:00;;;;;;;4.50;2.90;;;;;;;15.59;61.45;101252.38;5053065;28;20041;-62
2021/06/13 02:46:27;;;;;;;7.57;3.10;;;;;;;15.55;61.44;101253.50;5061286;28;20048;-60
2021/06/13 02:48:53;;;;;;;4.80;2.83;;;;;;;15.52;61.47;101258.97;5052496;28;20045;-61
2021/06/13 02:51:27;;;;;;;6.28;3.50;;;;;;;15.49;61.66;101258.25;5056122;28;20102;-59
2021/06/13 02:53:56;;;;;;;5.72;2.92;;;;;;;15.45;61.43;101260.22;5064897;28;20407;-59
2021/06/13 02:56:37;;;;;;;5.85;3.30;;;;;;;15.43;61.30;101264.78;5053548;28;20044;-61
2021/06/13 02:59:35;;;;;;;10.20;3.58;;;;;;;15.43;61.25;101267.44;5056993;28;20072;-60
2021/06/13 03:02:06;;;;;;;8.68;2.85;;;;;;;15.42;60.96;101271.09;5065823;28;20050;-60
2021/06/13 03:04:34;;;;;;;5.88;3.08;;;;;;;15.41;60.59;101270.22;5058262;28;20044;-61
2021/06/13 03:07:02;;;;;;;4.75;2.85;;;;;;;15.38;60.93;101272.19;5055014;28;20052;-57
2021/06/13 03:09:31;;;;;;;5.13;3.10;;;;;;;15.32;61.30;101276.03;5063569;28;20040;-61
2021/06/13 03:11:59;;;;;;;7.10;3.15;;;;;;;15.32;61.21;101272.50;5059256;28;20051;-61
2021/06/13 03:14:28;;;;;;;6.70;3.25;;;;;;;15.32;61.61;101277.84;5068379;28;20052;-60
2021/06/13 03:16:56;;;;;;;5.00;3.33;;;;;;;15.32;61.57;101284.03;5060289;28;20055;-57
2021/06/13 03:19:25;;;;;;;7.45;3.00;;;;;;;15.34;61.80;101283.97;5061450;28;21273;-56
2021/06/13 03:21:52;;;;;;;5.70;3.10;;;;;;;15.35;61.64;101281.22;5061620;28;20511;-58
2021/06/13 03:24:22;;;;;;;6.05;3.08;;;;;;;15.35;61.75;101280.34;5056733;28;20057;-59
2021/06/13 03:26:51;;;;;;;6.60;3.13;;;;;;;15.33;61.43;101290.25;5064440;28;20048;-61
2021/06/13 03:29:19;;;;;;;6.63;3.50;;;;;;;15.32;61.98;101288.50;5057065;28;20048;-59
2021/06/13 03:31:48;;;;;;;3.95;2.90;;;;;;;15.28;61.67;101285.13;5056405;28;20056;-60
2021/06/13 03:34:16;;;;;;;5.88;2.90;;;;;;;15.27;62.23;101290.56;5061415;28;20045;-61
2021/06/13 03:36:43;;;;;;;5.28;3.25;;;;;;;15.21;61.71;101289.09;5059356;28;20053;-59
2021/06/13 03:39:11;;;;;;;8.90;3.50;;;;;;;15.15;62.28;101292.06;5063149;28;20048;-60
2021/06/13 03:41:38;;;;;;;8.05;3.28;;;;;;;15.11;62.58;101295.00;5055738;28;20109;-61
2021/06/13 03:44:05;;;;;;;4.85;3.05;;;;;;;15.00;62.50;101285.72;5062976;28;20048;-58
2021/06/13 03:46:34;;;;;;;6.60;3.35;;;;;;;14.95;62.94;101290.41;5065755;28;20041;-60
2021/06/13 03:49:01;;;;;;;6.57;3.15;;;;;;;14.90;63.16;101289.81;5060637;28;20503;-58
2021/06/13 03:51:27;;;;;;;6.32;3.15;;;;;;;14.88;63.54;101290.81;5068559;28;20048;-60
2021/06/13 03:53:58;;;;;;;13.32;3.90;;;;;;;14.89;63.56;101287.22;5056950;28;20055;-60
2021/06/13 03:56:53;;;;;;;8.07;3.45;;;;;;;14.88;63.13;101286.34;5066787;28;20053;-59
2021/06/13 03:59:25;;;;;;;7.38;3.33;;;;;;;14.88;63.79;101283.69;5054794;28;20138;-59
2021/06/13 04:01:52;;;;;;;7.05;3.60;;;;;;;14.91;63.89;101288.84;5052271;28;20401;-58
2021/06/13 04:04:20;;;;;;;9.80;3.50;;;;;;;14.95;63.66;101295.75;5054994;28;20055;-58
2021/06/13 04:06:48;;;;;;;4.90;3.22;;;;;;;15.00;63.46;101298.19;5052640;28;20055;-57
2021/06/13 04:09:19;;;;;;;5.45;3.30;;;;;;;14.99;63.35;101307.97;5053544;28;20048;-58
2021/06/13 04:11:48;;;;;;;7.10;3.60;;;;;;;14.94;63.23;101310.03;5070209;28;20071;-59
2021/06/13 04:14:15;;;;;;;6.82;3.40;;;;;;;14.95;63.69;101316.25;5060580;28;20139;-59
2021/06/13 04:16:46;;;;;;;7.85;3.70;;;;;;;14.94;63.12;101314.50;5060034;28;20052;-58
2021/06/13 04:19:17;;;;;;;8.48;3.95;;;;;;;14.92;63.28;101319.06;5061326;28;20424;-58
2021/06/13 04:21:46;;;;;;;5.72;3.53;;;;;;;14.86;63.56;101322.88;5060609;28;20053;-60
2021/06/13 04:24:17;;;;;;;5.88;3.25;;;;;;;14.81;63.76;101324.91;5063480;28;20048;-60
2021/06/13 04:26:44;;;;;;;7.68;3.70;;;;;;;14.83;63.76;101333.69;5053361;28;20067;-59
2021/06/13 04:29:12;;;;;;;7.50;3.40;;;;;;;14.85;63.80;101339.81;5056898;28;20068;-57
2021/06/13 04:31:38;;;;;;;8.88;3.70;;;;;;;14.82;63.63;101336.44;5070270;28;20052;-60
2021/06/13 04:34:05;;;;;;;7.68;3.42;;;;;;;14.82;64.26;101342.63;5058700;28;20064;-61
2021/06/13 04:36:32;;;;;;;11.73;3.72;;;;;;;14.85;64.33;101342.50;5066106;28;20594;-59
2021/06/13 04:38:59;;;;;;;8.70;3.42;;;;;;;14.92;63.71;101346.59;5052322;28;20044;-61
2021/06/13 04:41:25;;;;;;;7.25;3.30;;;;;;;14.93;63.72;101355.47;5063941;28;20041;-57
2021/06/13 04:43:52;;;;;;;7.47;3.40;;;;;;;14.94;63.04;101359.84;5054357;28;20148;-60
2021/06/13 04:46:22;;;;;;;7.97;3.72;;;;;;;14.95;63.23;101362.41;5052577;28;20103;-59
2021/06/13 04:48:49;;;;;;;7.53;3.58;;;;;;;14.96;63.86;101361.47;5062923;28;20041;-61
2021/06/13 04:51:15;;;;;;;7.20;3.40;;;;;;;15.04;63.58;101369.97;5058075;28;20044;-61
2021/06/13 04:53:48;;;;;;;6.00;3.33;;;;;;;15.12;63.87;101368.72;5061876;28;20054;-62
2021/06/13 04:56:44;;;;;;;7.40;3.47;;;;;;;15.20;63.63;101374.53;5059226;28;20491;-58
2021/06/13 04:59:11;;;;;;;6.15;3.22;;;;;;;15.29;63.96;101374.94;5056760;28;20147;-59
2021/06/13 05:01:41;;;;;;;7.05;3.25;;;;;;;15.39;63.01;101375.34;5064228;28;20067;-62
2021/06/13 05:04:08;;;;;;;9.43;3.80;;;;;;;15.39;62.71;101381.53;5058799;28;20084;-61
2021/06/13 05:06:35;;;;;;;5.78;3.30;;;;;;;15.33;62.43;101383.66;5046714;28;20056;-57
2021/06/13 05:09:02;;;;;;;8.80;3.72;;;;;;;15.28;62.50;101385.69;5052375;28;20063;-61
2021/06/13 05:11:29;;;;;;;8.18;3.78;;;;;;;15.25;62.56;101385.84;5052530;28;20041;-58
2021/06/13 05:13:56;;;;;;;10.20;4.00;;;;;;;15.20;63.10;101390.56;5067794;28;20062;-62
2021/06/13 05:16:22;;;;;;;8.27;3.92;;;;;;;15.20;62.48;101394.09;5049472;28;20059;-61
2021/06/13 05:18:49;;;;;;;7.72;3.65;;;;;;;15.22;62.40;101402.00;5056332;28;20048;-61
2021/06/13 05:21:15;;;;;;;12.23;3.80;;;;;;;15.26;63.38;101407.13;5076262;28;20062;-62
2021/06/13 05:23:42;;;;;;;6.72;3.88;;;;;;;15.36;63.63;101402.19;5063658;28;20460;-59
2021/06/13 05:26:09;;;;;;;6.85;3.95;;;;;;;15.47;63.62;101402.47;5060181;28;20052;-62
2021/06/13 05:28:35;;;;;;;6.43;3.55;;;;;;;15.57;62.96;101406.47;5053956;28;20404;-62
2021/06/13 05:31:02;;;;;;;4.68;3.17;;;;;;;15.59;61.93;101407.22;5058112;28;20067;-62
2021/06/13 05:33:30;;;;;;;8.13;3.33;;;;;;;15.61;61.74;101410.69;5069505;28;20388;-61
2021/06/13 05:35:57;;;;;;;5.68;3.25;;;;;;;15.62;61.98;101417.75;5055649;28;20048;-59
2021/06/13 05:38:24;;;;;;;9.82;4.15;;;;;;;15.71;61.08;101429.78;5056088;28;20051;-60
2021/06/13 05:40:50;;;;;;;6.60;3.60;;;;;;;15.71;61.33;101425.28;5057305;28;20048;-61
2021/06/13 05:43:17;;;;;;;9.43;3.85;;;;;;;15.79;61.47;101425.75;5066044;28;20050;-61
2021/06/13 05:45:44;;;;;;;6.60;3.63;;;;;;;15.78;60.51;101428.50;5051094;28;20048;-61
2021/06/13 05:48:10;;;;;;;8.05;3.40;;;;;;;15.83;61.28;101437.13;5061232;28;20052;-61
2021/06/13 05:50:37;;;;;;;10.73;3.38;;;;;;;15.93;60.08;101442.84;5053769;28;20072;-59
2021/06/13 05:53:06;;;;;;;7.57;3.20;;;;;;;16.05;59.60;101439.56;5057003;28;20059;-60
2021/06/13 05:55:33;;;;;;;7.40;3.20;;;;;;;16.09;59.37;101451.78;5061589;28;20512;-56
2021/06/13 05:58:00;;;;;;;7.53;3.58;;;;;;;16.25;59.07;101455.38;5060943;28;20045;-60
2021/06/13 06:00:33;;;;;;;10.18;3.70;;;;;;;16.37;58.92;101449.34;5051099;28;20045;-60
2021/06/13 06:02:59;;;;;;;8.27;3.83;;;;;;;16.51;58.46;101450.44;5064648;28;20500;-60
2021/06/13 06:05:27;;;;;;;7.82;3.38;;;;;;;16.65;57.32;101448.75;5047242;28;20536;-59
2021/06/13 06:07:54;;;;;;;6.05;3.33;;;;;;;17.60;55.53;101456.69;5054806;28;20052;-60
2021/06/13 06:10:22;;;;;;;7.43;3.40;;;;;;;19.71;48.71;101450.34;5050010;28;20052;-60
2021/06/13 06:12:49;;;;;;;7.50;3.47;;;;;;;21.88;43.21;101447.84;5056665;28;20051;-60
2021/06/13 06:15:18;;;;;;;5.65;2.72;;;;;;;23.17;39.54;101455.50;5060888;28;20040;-61
2021/06/13 06:17:46;;;;;;;4.57;2.33;;;;;;;24.32;36.88;101462.81;5064614;28;20511;-59
2021/06/13 06:20:15;;;;;;;5.35;2.65;;;;;;;25.57;34.98;101465.00;5068246;28;20048;-60
2021/06/13 06:22:42;;;;;;;5.85;2.70;;;;;;;26.17;33.17;101470.09;5064420;28;20048;-59
2021/06/13 06:25:10;;;;;;;9.15;2.83;;;;;;;26.30;32.65;101466.22;5062542;28;20048;-62
2021/06/13 06:27:37;;;;;;;7.75;2.75;;;;;;;26.73;31.85;101469.22;5068555;28;20051;-57
2021/06/13 06:30:07;;;;;;;6.05;2.72;;;;;;;27.36;30.76;101469.28;5056537;28;20060;-61
2021/06/13 06:32:34;;;;;;;4.18;2.35;;;;;;;27.89;29.87;101473.84;5065626;28;20055;-59
2021/06/13 06:35:01;;;;;;;6.38;2.50;;;;;;;27.83;28.45;101477.22;5059310;28;20044;-59
2021/06/13 06:37:27;;;;;;;8.68;2.78;;;;;;;27.65;29.02;101471.78;5059958;28;20051;-59
2021/06/13 06:39:54;;;;;;;6.93;2.63;;;;;;;28.15;28.68;101476.63;5065597;28;20048;-61
2021/06/13 06:42:21;;;;;;;5.78;2.85;;;;;;;27.70;29.22;101488.53;5055077;28;20457;-58
2021/06/13 06:44:52;;;;;;;7.20;3.15;;;;;;;27.49;29.71;101485.22;5063408;28;20053;-61
2021/06/13 06:47:19;;;;;;;4.22;2.85;;;;;;;27.11;30.31;101483.63;5058728;28;20047;-58
2021/06/13 06:49:46;;;;;;;9.63;3.10;;;;;;;26.50;31.66;101497.75;5060012;28;20055;-59
2021/06/13 06:52:12;;;;;;;7.45;3.17;;;;;;;26.59;32.03;101496.88;5059474;28;20058;-56
2021/06/13 06:54:40;;;;;;;6.40;2.80;;;;;;;26.68;31.13;101498.69;5055599;28;20660;-61
2021/06/13 06:57:07;;;;;;;7.72;2.65;;;;;;;27.36;30.64;101495.63;5066474;28;20056;-58
2021/06/13 06:59:33;;;;;;;16.95;4.07;;;;;;;27.91;29.71;101501.78;5059646;28;20150;-61
2021/06/13 07:02:01;;;;;;;9.13;3.55;;;;;;;27.49;30.34;101502.41;5061708;28;20060;-60
2021/06/13 07:04:27;;;;;;;12.43;3.65;;;;;;;26.51;31.87;101500.34;5062060;28;20052;-62
2021/06/13 07:06:54;;;;;;;7.93;2.45;;;;;;;26.53;31.97;101500.19;5056344;28;20098;-61
2021/06/13 07:09:21;;;;;;;7.53;2.58;;;;;;;26.97;31.59;101503.16;5060230;28;20049;-61
2021/06/13 07:11:47;;;;;;;8.57;3.05;;;;;;;27.10;30.25;101499.06;5057563;28;20052;-61
2021/06/13 07:14:14;;;;;;;8.45;2.75;;;;;;;27.43;30.65;101502.16;5062666;28;20087;-63
2021/06/13 07:16:40;;;;;;;6.47;2.90;;;;;;;28.05;29.96;101498.47;5061935;28;20078;-60
2021/06/13 07:19:07;;;;;;;7.85;3.00;;;;;;;27.74;29.94;101494.47;5059329;28;20626;-60
2021/06/13 07:21:34;;;;;;;6.00;2.88;;;;;;;27.62;29.56;101495.75;5070963;28;20064;-62
2021/06/13 07:24:00;;;;;;;7.07;3.13;;;;;;;27.85;29.82;101496.97;5062811;28;20048;-64
2021/06/13 07:26:27;;;;;;;7.78;3.10;;;;;;;27.42;30.52;101498.56;5071812;28;20052;-60
2021/06/13 07:28:53;;;;;;;7.40;2.95;;;;;;;27.25;30.65;101502.13;5051377;28;20052;-62
2021/06/13 07:31:20;;;;;;;7.30;2.65;;;;;;;27.42;30.49;101498.56;5068776;28;20049;-60
2021/06/13 07:33:46;;;;;;;7.25;3.05;;;;;;;27.77;30.09;101497.75;5066459;28;20056;-61
2021/06/13 07:36:13;;;;;;;7.60;2.53;;;;;;;28.11;29.75;101508.75;5066389;28;20044;-60
2021/06/13 07:38:39;;;;;;;5.22;2.33;;;;;;;28.43;28.91;101502.69;5070472;28;20052;-60
2021/06/13 07:41:06;;;;;;;7.28;3.00;;;;;;;28.46;28.35;101501.53;5066570;28;20048;-63
2021/06/13 07:43:32;;;;;;;5.10;2.70;;;;;;;27.36;29.46;101515.53;5058937;28;20049;-59
2021/06/13 07:45:59;;;;;;;7.57;3.38;;;;;;;26.71;29.42;101509.28;5042329;28;20535;-61
2021/06/13 07:48:26;;;;;;;11.63;5.80;;;;;;;25.30;32.48;101515.38;5062619;28;20397;-62
2021/06/13 07:50:52;;;;;;;7.55;3.03;;;;;;;25.61;32.93;101505.28;5074998;28;20071;-62
2021/06/13 07:53:19;;;;;;;10.65;5.20;;;;;;;26.21;30.82;101509.53;5068335;28;20580;-61
2021/06/13 07:55:46;;;;;;;6.72;2.90;;;;;;;26.63;31.99;101508.28;5066959;28;20058;-61
2021/06/13 07:58:12;;;;;;;6.25;2.88;;;;;;;27.01;30.19;101510.88;5062961;28;20044;-58
2021/06/13 08:00:39;;;;;;;6.30;3.08;;;;;;;27.53;30.08;101513.84;5061573;28;20131;-61
2021/06/13 08:03:06;;;;;;;5.05;2.65;;;;;;;27.26;29.67;101517.44;5069383;28;20076;-58
2021/06/13 08:05:35;;;;;;;4.75;2.60;;;;;;;27.11;30.92;101524.41;5051741;28;20060;-63
2021/06/13 08:08:06;;;;;;;7.05;3.45;;;;;;;26.34;31.35;101520.09;5048657;28;20056;-58
2021/06/13 08:10:34;;;;;;;9.48;5.05;;;;;;;25.32;32.77;101537.78;5055628;28;20045;-61
2021/06/13 08:13:02;;;;;;;10.13;4.07;;;;;;;24.54;34.84;101527.63;5067573;28;20055;-58
2021/06/13 08:15:29;;;;;;;8.25;4.63;;;;;;;23.65;35.65;101530.81;5063066;28;20080;-61
2021/06/13 08:17:57;;;;;;;8.18;3.72;;;;;;;22.98;37.18;101534.47;5063920;28;20131;-59
2021/06/13 08:20:23;;;;;;;9.80;5.30;;;;;;;22.79;38.14;101538.81;5063006;28;20045;-61
2021/06/13 08:22:50;;;;;;;10.38;4.35;;;;;;;22.29;38.08;101533.69;5069962;28;20049;-60
2021/06/13 08:25:17;;;;;;;8.40;3.88;;;;;;;21.65;39.91;101535.03;5068696;28;20052;-58
2021/06/13 08:27:44;;;;;;;6.13;3.17;;;;;;;21.64;40.57;101527.94;5068916;28;20055;-59
2021/06/13 08:30:13;;;;;;;9.48;3.47;;;;;;;21.76;40.94;101528.84;5065813;28;20558;-59
2021/06/13 08:32:40;;;;;;;9.05;3.92;;;;;;;21.90;40.92;101534.03;5063249;28;20068;-57
2021/06/13 08:35:08;;;;;;;6.95;3.10;;;;;;;21.87;40.42;101532.47;5064252;28;20051;-60
2021/06/13 08:37:35;;;;;;;10.90;5.65;;;;;;;21.74;39.71;101526.25;5064987;28;20086;-61
2021/06/13 08:40:04;;;;;;;7.18;3.58;;;;;;;21.49;40.12;101526.41;5066209;28;20052;-62
2021/06/13 08:42:30;;;;;;;9.60;4.90;;;;;;;21.39;40.78;101518.16;5066141;28;20055;-59
2021/06/13 08:44:57;;;;;;;12.65;6.53;;;;;;;21.05;41.56;101518.88;5048725;28;20052;-60
2021/06/13 08:47:24;;;;;;;6.70;3.45;;;;;;;20.94;41.46;101525.88;5064455;28;20071;-60
2021/06/13 08:49:51;;;;;;;8.75;3.60;;;;;;;20.79;42.34;101518.91;5066776;28;20456;-62
2021/06/13 08:52:18;;;;;;;7.78;3.17;;;;;;;20.85;42.86;101513.09;5066732;28;20055;-67
2021/06/13 08:54:45;;;;;;;7.68;3.47;;;;;;;20.78;42.02;101513.66;5066683;28;20049;-56
2021/06/13 08:57:12;;;;;;;9.50;4.05;;;;;;;20.61;42.69;101518.41;5070901;28;20579;-55
2021/06/13 08:59:39;;;;;;;10.20;4.65;;;;;;;20.42;42.48;101525.22;5064054;28;20055;-58
2021/06/13 09:02:07;;;;;;;6.80;3.60;;;;;;;20.43;44.06;101519.72;5064495;28;20516;-57
2021/06/13 09:04:34;;;;;;;9.48;4.07;;;;;;;20.65;43.04;101514.53;5066119;28;20492;-55
2021/06/13 09:07:24;;;;;;;7.63;3.08;;;;;;;20.74;43.02;101522.91;5060924;28;20056;-56
2021/06/13 09:09:55;;;;;;;8.52;3.55;;;;;;;20.91;42.32;101525.25;5069018;28;20097;-57
2021/06/13 09:12:23;;;;;;;7.55;3.30;;;;;;;21.12;43.88;101529.06;5066688;28;20416;-53
2021/06/13 09:14:51;;;;;;;11.43;3.63;;;;;;;21.31;43.77;101523.22;5058627;28;20053;-57
2021/06/13 09:17:25;;;;;;;7.95;3.33;;;;;;;21.34;40.97;101526.56;5062166;28;20040;-59
2021/06/13 09:20:09;;;;;;;8.80;3.33;;;;;;;21.31;42.16;101512.44;5062441;28;20489;-58
2021/06/13 09:22:37;;;;;;;6.97;3.45;;;;;;;21.14;41.52;101515.50;5067008;28;20040;-58
2021/06/13 09:25:13;;;;;;;7.28;3.67;;;;;;;21.10;42.78;101520.25;5065132;28;20045;-58
2021/06/13 09:27:41;;;;;;;6.88;3.17;;;;;;;21.08;41.56;101527.59;5062437;28;20045;-57
2021/06/13 09:30:09;;;;;;;10.18;3.38;;;;;;;21.01;41.93;101518.22;5052108;28;20049;-57
2021/06/13 09:33:16;;;;;;;5.47;3.10;;;;;;;20.90;42.76;101513.63;5056274;28;20138;-58
2021/06/13 09:35:45;;;;;;;7.55;3.25;;;;;;;20.81;41.59;101513.41;4963035;28;20054;-57
2021/06/13 09:38:17;;;;;;;10.40;3.63;;;;;;;20.74;42.70;101513.00;4964088;28;20066;-56
2021/06/13 09:41:00;;;;;;;6.50;3.15;;;;;;;20.86;43.03;101517.50;5014865;28;20690;-55
2021/06/13 09:43:37;;;;;;;5.25;3.20;;;;;;;20.80;42.73;101517.06;5062605;28;20452;-57
2021/06/13 09:46:07;;;;;;;8.45;3.28;;;;;;;20.75;42.73;101520.13;5066684;28;20138;-57
2021/06/13 09:48:42;;;;;;;10.20;3.40;;;;;;;20.61;43.97;101512.19;5061165;28;20052;-57
2021/06/13 09:51:17;;;;;;;7.05;3.30;;;;;;;20.62;42.67;101512.03;5065574;28;20056;-59
2021/06/13 09:53:55;;;;;;;7.32;3.50;;;;;;;20.44;43.07;101509.81;5058797;28;20051;-58
2021/06/13 09:56:30;;;;;;;6.97;3.42;;;;;;;20.54;43.23;101510.88;5061696;28;20139;-60
2021/06/13 09:59:22;;;;;;;9.88;3.72;;;;;;;20.60;43.14;101511.31;5063561;28;20074;-60
2021/06/13 10:01:52;;;;;;;9.02;3.58;;;;;;;20.70;43.69;101511.50;5064721;28;20048;-54
2021/06/13 10:04:22;;;;;;;7.25;3.58;;;;;;;20.71;42.89;101509.69;5062586;28;20055;-57
2021/06/13 10:07:13;;;;;;;7.97;3.53;;;;;;;20.73;43.74;101502.34;5060173;28;20424;-56
2021/06/13 10:09:41;;;;;;;10.02;3.75;;;;;;;20.64;42.74;101512.78;5046336;28;20063;-61
2021/06/13 10:12:10;;;;;;;5.72;3.22;;;;;;;20.61;43.66;101518.41;5058805;28;20053;-57
2021/06/13 10:14:38;;;;;;;6.80;3.40;;;;;;;20.73;43.75;101502.34;5061381;28;20103;-57
2021/06/13 10:17:05;;;;;;;10.30;3.30;;;;;;;20.67;43.53;101501.81;5065965;28;20504;-59
2021/06/13 10:19:43;;;;;;;7.95;3.20;;;;;;;20.66;42.63;101504.63;5060213;28;20075;-56
2021/06/13 10:22:11;;;;;;;7.35;3.40;;;;;;;20.43;43.83;101497.34;5065496;28;20040;-58
2021/06/13 10:24:41;;;;;;;7.68;3.60;;;;;;;20.41;44.64;101492.06;5057060;28;20055;-57
2021/06/13 10:27:12;;;;;;;6.35;3.25;;;;;;;20.56;44.19;101495.50;5061914;28;20051;-55
2021/06/13 10:29:41;;;;;;;10.55;4.13;;;;;;;20.63;43.37;101503.00;5055998;28;20052;-57
2021/06/13 10:32:09;;;;;;;6.07;2.95;;;;;;;20.47;42.95;101488.91;5063781;28;20052;-57
2021/06/13 10:34:36;;;;;;;9.20;3.40;;;;;;;20.49;43.07;101497.75;5059520;28;21820;-57
2021/06/13 10:37:06;;;;;;;5.85;3.33;;;;;;;20.64;42.55;101498.47;5061164;28;20056;-58
2021/06/13 10:39:35;;;;;;;6.50;3.00;;;;;;;20.81;42.45;101494.56;5056713;28;20102;-58
2021/06/13 10:42:03;;;;;;;6.38;3.28;;;;;;;20.90;42.07;101496.63;5058189;28;20493;-59
2021/06/13 10:44:31;;;;;;;7.95;3.53;;;;;;;21.02;41.93;101491.19;5060268;28;20044;-62
2021/06/13 10:47:12;;;;;;;7.68;3.42;;;;;;;21.05;41.67;101498.19;5061573;28;20446;-62
2021/06/13 10:49:40;;;;;;;6.40;3.15;;;;;;;20.95;42.37;101489.91;5063271;28;20088;-63
2021/06/13 10:52:09;;;;;;;8.57;3.40;;;;;;;20.90;42.25;101486.72;5055148;28;20044;-61
2021/06/13 10:54:54;;;;;;;7.95;3.15;;;;;;;21.07;43.59;101490.00;5062766;28;20456;-63
2021/06/13 10:57:25;;;;;;;6.22;3.42;;;;;;;21.29;42.89;101480.22;5066274;28;20067;-62
2021/06/13 11:00:01;;;;;;;9.98;3.30;;;;;;;21.46;41.68;101478.09;5068061;28;20147;-61
2021/06/13 11:02:49;;;;;;;8.25;3.33;;;;;;;21.60;41.40;101480.63;5067886;28;20063;-61
2021/06/13 11:05:34;;;;;;;7.05;3.30;;;;;;;21.26;41.59;101493.06;5069278;28;20072;-62
2021/06/13 11:08:01;;;;;;;6.53;3.88;;;;;;;21.14;40.98;101492.13;5048939;28;20136;-62
2021/06/13 11:10:31;;;;;;;8.00;3.58;;;;;;;21.04;42.20;101482.13;5065581;28;20472;-62
2021/06/13 11:13:10;;;;;;;9.68;3.70;;;;;;;21.12;41.90;101480.59;5069432;28;20476;-62
2021/06/13 11:15:40;;;;;;;7.03;3.13;;;;;;;21.22;42.31;101483.50;5067867;28;20070;-61
2021/06/13 11:18:17;;;;;;;6.22;3.42;;;;;;;21.41;41.87;101474.91;5070041;28;20048;-60
2021/06/13 11:21:04;;;;;;;9.55;3.78;;;;;;;21.59;42.10;101468.97;5062742;28;20051;-62
2021/06/13 11:23:30;;;;;;;7.75;3.60;;;;;;;21.76;41.20;101475.78;5073049;28;20056;-62
2021/06/13 11:26:00;;;;;;;5.32;3.28;;;;;;;21.88;40.82;101474.00;5072722;28;20131;-62
2021/06/13 11:28:44;;;;;;;7.05;3.38;;;;;;;22.01;41.38;101474.78;5071803;28;20052;-61
2021/06/13 11:31:14;;;;;;;7.25;3.30;;;;;;;22.13;40.31;101471.13;5053292;28;20100;-61
2021/06/13 11:34:07;;;;;;;6.67;3.40;;;;;;;22.22;40.74;101467.69;5071288;28;20508;-60
2021/06/13 11:36:40;;;;;;;7.93;3.60;;;;;;;22.25;40.12;101462.06;5063582;28;20547;-61